East Orleans, MA

10:17 PM EDT on August 21, 2014 (GMT -0400)
Chatham Municipal | Change Station
CLOSE
Current Station
Airport
Location: Chatham,
Elevation: 66 ft
Nearby Weather Stations

Elev 66 ft 41.69 °N, 69.99 °W | Updated 25 minutes ago

Clear
Clear
67 °F
Feels Like 67 °F
N
4
Wind Variable Wind from NE

Today
High -- | Low -- °F
--% Chance of Precip.
Yesterday
High -- | Low -- °F
Precip. -- in
5:54 AM 7:30 PM
Waning Crescent, 11% visible
Pressure 30.09 in
Visibility 10.0 miles
Clouds Clear
Dew Point 61 °F
Humidity 81%
Rainfall 0.00 in
Snow Depth Not available.
UV 0 out of 12
Pollen 8.20 out of 12
Ozone Good
Flu Activity Not available.
METAR KCQX 220152Z AUTO 04003KT 10SM CLR 19/16 A3008 RMK AO2 SLP187 T01940161

More Conditions Fewer Conditions

Pressure 30.09 in
Visibility 10.0 miles
Clouds Clear
Dew Point 61 °F
Humidity 81%
Rainfall 0.00 in
Snow Depth Not available.
UV 0 out of 12
Pollen 8.20 out of 12
Ozone Good
Flu Activity Not available.
METAR KCQX 220152Z AUTO 04003KT 10SM CLR 19/16 A3008 RMK AO2 SLP187 T01940161

More Conditions Fewer Conditions

10-Day Weather Forecast

Almanac

Astronomy

Aug. 21, 2014 Rise Set
Actual Time 5:54 AM EDT 7:30 PM EDT
Civil Twilight 5:24 AM EDT 8:00 PM EDT
Nautical Twilight 4:49 AM EDT 8:35 PM EDT
Astronomical Twilight 4:11 AM EDT 9:13 PM EDT
Moon 2:20 AM EDT (8/21) 4:58 PM EDT (8/21)
Length of Visible Light 14h 35m
Length of Day
13h 36m
Tomorrow will be 2m 35s shorter.
Waning Crescent, 11% of the Moon is Illuminated
Today
Waning Crescent
Aug 25
New
Sep 2
First Quarter
Sep 8
Full
Sep 15
Last Quarter

Today's Extremes

State Highs State Lows

Community

WunderPhotos

Upload Photos

1,746,106 photos uploaded!

WunderBlogs® & News

Nearby

Air Quality

  Air Quality AQ Index Pollutant
Yesterday Good
OZONE
Current Good
OZONE
Thursday Good
PM2.5
Thursday Good
OZONE
Friday Good
PM2.5
Friday Good
OZONE

Snow Depth

Station Depth Elevation
No new snow has been reported.

Earthquake Activity

City Distance Mag. Time & Date
No recent earthquake activity has been reported nearby.
Minimum magnitude displayed is 2.5.

Coastal Water Temperatures

Place Temperature
Nantucket Island, MA 73.9 °F
Woods Hole, MA 70.0 °F
Fall River, MA 75.0 °F
Boston, MA 64.9 °F

Nearby Weather Stations